Time;durP1;ratioP1;P1;durP2;ratioP2;P2;SDS_P1;SDS_P2;PMS_P1;PMS_P2;Temp;Humidity;BMP_temperature;BMP_pressure;BME280_temperature;BME280_humidity;BME280_pressure;Samples;Min_cycle;Max_cycle;Signal;HPM_P1;HPM_P2
2022/01/02 00:02:16;;;;;;;6.73;4.87;;;8.20;79.80;8.20;97090.00;;;;5043660;28;20199;-91
2022/01/02 00:04:50;;;;;;;6.57;4.77;;;8.20;79.70;8.20;97086.00;;;;5045183;28;20213;-85
2022/01/02 00:07:18;;;;;;;8.60;4.93;;;8.30;79.60;8.20;97075.00;;;;5054162;28;20193;-90
2022/01/02 00:09:50;;;;;;;6.47;4.77;;;8.20;79.40;8.10;97079.00;;;;5040838;28;20427;-91
2022/01/02 00:12:21;;;;;;;17.00;5.57;;;8.10;79.20;8.10;97061.00;;;;5044111;28;20195;-90
2022/01/02 00:14:49;;;;;;;8.27;5.40;;;8.10;79.10;8.10;97062.00;;;;5044150;28;20219;-90
2022/01/02 00:17:22;;;;;;;16.40;5.33;;;8.10;79.10;8.10;97052.00;;;;5037237;28;20221;-91
2022/01/02 00:19:54;;;;;;;14.37;5.50;;;8.90;79.60;8.00;97071.00;;;;5049341;28;20193;-90
2022/01/02 00:22:28;;;;;;;7.93;4.33;;;8.00;79.10;8.00;97068.00;;;;5035436;28;20201;-90
2022/01/02 00:24:57;;;;;;;12.33;4.93;;;8.00;79.20;8.00;97062.00;;;;5048382;28;20235;-90
2022/01/02 00:27:24;;;;;;;8.30;4.77;;;8.00;79.20;8.00;97051.00;;;;5049202;28;20280;-91
2022/01/02 00:29:52;;;;;;;11.00;4.80;;;8.10;79.20;8.00;97056.00;;;;5052689;28;20224;-91
2022/01/02 00:32:22;;;;;;;8.33;4.83;;;8.00;79.20;7.90;97060.00;;;;5049012;28;20192;-89
2022/01/02 00:34:52;;;;;;;7.83;4.63;;;7.90;79.10;7.90;97044.00;;;;5055213;28;20226;-91
2022/01/02 00:37:19;;;;;;;9.37;4.97;;;7.90;79.20;7.90;97054.00;;;;5043621;28;20221;-90
2022/01/02 00:39:46;;;;;;;8.27;4.53;;;7.90;79.20;7.90;97050.00;;;;5036377;28;20198;-90
2022/01/02 00:42:24;;;;;;;6.97;4.97;;;7.80;79.10;7.90;97043.00;;;;5046414;28;20190;-90
2022/01/02 00:45:00;;;;;;;11.93;5.20;;;7.90;79.10;7.80;97033.00;;;;5050747;28;20217;-90
2022/01/02 00:47:37;;;;;;;13.47;5.57;;;7.90;79.10;7.80;97044.00;;;;5055827;28;20196;-91
2022/01/02 00:50:10;;;;;;;10.20;5.40;;;7.80;79.20;7.80;97041.00;;;;5051601;28;20271;-90
2022/01/02 00:52:42;;;;;;;10.83;5.50;;;7.80;79.20;7.80;97038.00;;;;5034662;28;20205;-91
2022/01/02 00:55:12;;;;;;;11.30;5.70;;;9.00;79.90;7.80;97039.00;;;;5046308;28;20216;-90
2022/01/02 00:57:42;;;;;;;8.97;4.90;;;7.80;79.20;7.80;97042.00;;;;5053822;28;20217;-89
2022/01/02 01:00:13;;;;;;;8.10;5.00;;;7.80;79.30;7.70;97045.00;;;;5046353;28;20223;-90
2022/01/02 01:02:45;;;;;;;6.40;4.63;;;7.70;79.20;7.70;97042.00;;;;5054621;28;20205;-90
2022/01/02 01:05:21;;;;;;;9.17;4.93;;;7.90;79.40;7.70;97042.00;;;;5047563;28;20213;-90
2022/01/02 01:07:49;;;;;;;10.97;4.60;;;7.70;79.30;7.70;97044.00;;;;5057922;28;20207;-90
2022/01/02 01:10:18;;;;;;;8.37;4.60;;;7.70;79.30;7.70;97045.00;;;;5051544;28;20192;-91
2022/01/02 01:12:46;;;;;;;7.10;4.50;;;7.80;79.50;7.70;97040.00;;;;5058592;28;20196;-91
2022/01/02 01:15:13;;;;;;;7.03;4.43;;;7.70;79.30;7.70;97034.00;;;;5048091;28;20212;-91
2022/01/02 01:17:41;;;;;;;8.03;4.67;;;7.60;79.10;7.60;97039.00;;;;5049536;28;20281;-90
2022/01/02 01:20:12;;;;;;;17.47;5.23;;;7.60;79.10;7.60;97032.00;;;;5049523;28;20579;-90
2022/01/02 01:22:42;;;;;;;9.03;4.43;;;7.60;79.10;7.60;97034.00;;;;5041695;28;20189;-89
2022/01/02 01:25:16;;;;;;;12.23;4.30;;;7.60;79.10;7.60;97041.00;;;;5040832;28;20220;-90
2022/01/02 01:27:44;;;;;;;13.73;4.33;;;7.60;79.10;7.60;97034.00;;;;5043170;28;20571;-89
2022/01/02 01:30:15;;;;;;;5.63;4.13;;;7.60;79.30;7.60;97040.00;;;;5051374;28;20189;-90
2022/01/02 01:32:43;;;;;;;7.00;4.07;;;7.60;79.30;7.50;97037.00;;;;5042282;28;20292;-90
2022/01/02 01:35:11;;;;;;;9.03;3.97;;;7.50;79.20;7.50;97037.00;;;;5055009;28;20240;-90
2022/01/02 01:37:40;;;;;;;4.70;3.77;;;7.60;79.10;7.50;97037.00;;;;5052518;28;20312;-89
2022/01/02 01:40:12;;;;;;;8.23;4.10;;;7.90;79.40;7.50;97033.00;;;;5040407;28;20223;-90
2022/01/02 01:42:42;;;;;;;4.13;3.73;;;7.50;79.20;7.50;97034.00;;;;5057170;28;20666;-87
2022/01/02 01:45:30;;;;;;;5.80;3.50;;;7.50;79.10;7.50;97021.00;;;;5055240;28;20251;-90
2022/01/02 01:48:00;;;;;;;7.73;4.40;;;7.50;79.10;7.40;97022.00;;;;5042863;28;20231;-90
2022/01/02 01:50:30;;;;;;;6.80;4.40;;;7.50;79.10;7.40;97019.00;;;;5055541;28;20243;-90
2022/01/02 01:53:00;;;;;;;8.87;4.17;;;7.60;79.20;7.40;97023.00;;;;5049500;28;20201;-91
2022/01/02 01:55:26;;;;;;;6.63;3.63;;;8.60;79.90;7.40;97017.00;;;;5039304;28;20213;-90
2022/01/02 01:57:54;;;;;;;4.63;4.23;;;7.40;79.10;7.40;97002.00;;;;5041785;28;20223;-90
2022/01/02 02:00:24;;;;;;;7.20;4.47;;;7.40;79.10;7.40;97015.00;;;;5046674;28;20193;-90
2022/01/02 02:02:51;;;;;;;11.53;4.70;;;7.40;79.10;7.40;97020.00;;;;5043183;28;20197;-90
2022/01/02 02:05:18;;;;;;;9.77;4.67;;;7.40;79.10;7.40;97013.00;;;;5055952;28;20220;-90
2022/01/02 02:07:46;;;;;;;9.87;4.73;;;7.40;79.30;7.40;97005.00;;;;5044871;28;20193;-91
2022/01/02 02:10:23;;;;;;;8.23;4.80;;;7.40;80.00;7.40;97001.00;;;;5040387;28;20221;-90
2022/01/02 02:12:53;;;;;;;8.33;4.50;;;8.10;79.70;7.30;96999.00;;;;5052464;28;20204;-91
2022/01/02 02:15:21;;;;;;;8.43;4.47;;;8.50;80.10;7.30;96996.00;;;;5047220;28;20213;-91
2022/01/02 02:17:51;;;;;;;10.33;4.87;;;7.30;79.50;7.30;96976.00;;;;5048498;28;20239;-91
2022/01/02 02:20:23;;;;;;;10.50;5.07;;;7.30;79.50;7.30;96983.00;;;;5046804;28;20303;-89
2022/01/02 02:22:55;;;;;;;5.77;4.80;;;7.30;79.50;7.30;96987.00;;;;5049055;28;20197;-91
2022/01/02 02:25:25;;;;;;;14.23;5.17;;;7.40;79.50;7.30;96979.00;;;;5044113;28;20213;-91
2022/01/02 02:27:54;;;;;;;15.07;5.37;;;7.30;79.40;7.30;96974.00;;;;5045561;28;20288;-91
2022/01/02 02:30:22;;;;;;;13.53;5.00;;;7.30;79.50;7.30;96981.00;;;;5041918;28;20185;-90
2022/01/02 02:32:50;;;;;;;6.17;4.67;;;7.30;79.50;7.30;96978.00;;;;5037747;28;20193;-90
2022/01/02 02:35:18;;;;;;;8.57;5.00;;;7.30;79.40;7.30;96966.00;;;;5047578;28;20232;-90
2022/01/02 02:37:48;;;;;;;11.80;5.20;;;7.30;79.30;7.30;96954.00;;;;5052829;28;20213;-90
2022/01/02 02:40:19;;;;;;;13.83;4.77;;;7.30;79.30;7.20;96951.00;;;;5042946;28;20192;-90
2022/01/02 02:42:51;;;;;;;4.73;4.23;;;7.30;79.20;7.20;96948.00;;;;5061891;28;20262;-91
2022/01/02 02:51:09;;;;;;;11.40;4.13;;;7.80;79.60;7.10;96952.00;;;;5038857;28;20212;-90
2022/01/02 02:53:40;;;;;;;6.67;4.83;;;8.20;80.00;7.10;96950.00;;;;5035628;28;20197;-91
2022/01/02 02:56:15;;;;;;;7.80;4.23;;;7.20;79.40;7.10;96946.00;;;;5038066;28;20209;-89
2022/01/02 02:58:42;;;;;;;7.30;4.43;;;7.10;79.20;7.10;96949.00;;;;5036779;28;20323;-90
2022/01/02 03:01:12;;;;;;;5.60;4.60;;;7.10;79.10;7.10;96956.00;;;;5049160;28;20193;-91
2022/01/02 03:03:40;;;;;;;4.63;4.23;;;7.10;79.10;7.10;96952.00;;;;5056584;28;20214;-90
2022/01/02 03:06:09;;;;;;;8.23;4.17;;;7.10;79.10;7.00;96946.00;;;;5055485;28;20201;-91
2022/01/02 03:08:38;;;;;;;8.13;4.80;;;7.80;79.50;7.00;96948.00;;;;5058509;28;20197;-91
2022/01/02 03:11:08;;;;;;;8.63;4.73;;;7.20;79.20;7.00;96942.00;;;;5055851;28;20647;-91
2022/01/02 03:13:35;;;;;;;12.53;4.63;;;8.30;79.90;7.00;96940.00;;;;5045506;28;20202;-91
2022/01/02 03:16:03;;;;;;;7.80;4.77;;;7.00;79.00;6.90;96939.00;;;;5044900;28;20196;-89
2022/01/02 03:18:30;;;;;;;4.87;4.33;;;7.00;78.90;6.90;96930.00;;;;5045328;28;20227;-90
2022/01/02 03:20:57;;;;;;;5.03;4.50;;;7.00;78.90;6.90;96920.00;;;;5033848;28;20204;-89
2022/01/02 03:23:25;;;;;;;6.47;4.40;;;7.00;78.80;6.90;96915.00;;;;5041511;28;20207;-90
2022/01/02 03:25:53;;;;;;;10.40;4.70;;;7.70;79.30;6.80;96909.00;;;;5056606;28;20534;-88
2022/01/02 03:28:20;;;;;;;7.07;4.50;;;6.90;78.80;6.80;96918.00;;;;5056801;28;20204;-87
2022/01/02 03:30:47;;;;;;;7.87;4.50;;;7.50;79.30;6.80;96908.00;;;;5056842;28;20191;-88
2022/01/02 03:33:14;;;;;;;10.73;4.60;;;6.90;79.00;6.80;96908.00;;;;5075966;28;20183;-87
2022/01/02 03:35:41;;;;;;;8.33;4.53;;;6.90;79.00;6.80;96915.00;;;;5072823;28;20272;-87
2022/01/02 03:38:10;;;;;;;9.43;4.97;;;7.70;79.50;6.80;96905.00;;;;5062899;28;20283;-88
2022/01/02 03:40:39;;;;;;;5.33;4.47;;;6.80;79.10;6.80;96911.00;;;;5070880;28;20219;-88
2022/01/02 03:43:07;;;;;;;9.43;5.17;;;6.80;79.10;6.70;96906.00;;;;5063768;28;20196;-88
2022/01/02 03:45:34;;;;;;;8.13;4.60;;;6.80;79.10;6.70;96910.00;;;;5069322;28;20272;-88
2022/01/02 03:48:01;;;;;;;5.30;4.70;;;6.80;79.00;6.70;96899.00;;;;5063112;28;20199;-88
2022/01/02 03:50:28;;;;;;;5.97;4.47;;;6.80;78.90;6.70;96908.00;;;;5050508;28;20203;-89
2022/01/02 03:52:56;;;;;;;6.80;5.67;;;6.70;78.80;6.70;96907.00;;;;5064542;28;20261;-89
2022/01/02 03:55:23;;;;;;;6.27;5.67;;;6.70;78.80;6.60;96908.00;;;;5082632;23;20239;-84
2022/01/02 03:57:51;;;;;;;7.10;5.77;;;6.70;78.90;6.60;96895.00;;;;5072401;28;20199;-84
2022/01/02 04:00:19;;;;;;;10.70;5.50;;;6.70;79.10;6.50;96894.00;;;;5072057;28;20545;-84
2022/01/02 04:02:47;;;;;;;9.43;5.50;;;6.70;79.30;6.50;96901.00;;;;5072672;28;20245;-84
2022/01/02 04:05:16;;;;;;;7.43;5.50;;;6.60;79.30;6.50;96898.00;;;;5053389;28;20233;-84
2022/01/02 04:07:44;;;;;;;7.30;5.63;;;6.60;79.40;6.50;96893.00;;;;5052705;28;20202;-84
2022/01/02 04:10:14;;;;;;;8.43;5.67;;;6.60;79.20;6.50;96895.00;;;;5057624;28;20188;-85
2022/01/02 04:12:42;;;;;;;14.70;5.43;;;6.60;79.20;6.50;96894.00;;;;5062835;28;20199;-84
2022/01/02 04:15:14;;;;;;;8.57;6.27;;;6.60;79.10;6.50;96890.00;;;;5052351;28;20311;-84
2022/01/02 04:17:43;;;;;;;6.00;5.13;;;6.60;79.70;6.40;96883.00;;;;5052527;28;20652;-84
2022/01/02 04:20:13;;;;;;;12.03;5.90;;;6.60;79.00;6.40;96885.00;;;;5052544;28;20247;-84
2022/01/02 04:22:41;;;;;;;11.70;5.30;;;6.60;78.90;6.40;96884.00;;;;5052385;28;20192;-84
2022/01/02 04:25:09;;;;;;;13.10;5.70;;;6.50;79.00;6.40;96881.00;;;;5051959;28;20219;-84
2022/01/02 04:27:37;;;;;;;8.13;5.47;;;6.50;79.00;6.40;96876.00;;;;5052343;28;20197;-84
2022/01/02 04:30:07;;;;;;;12.63;5.73;;;6.50;78.90;6.40;96879.00;;;;5061171;28;20283;-84
2022/01/02 04:32:36;;;;;;;10.90;5.73;;;6.50;79.60;6.40;96880.00;;;;5072696;28;20211;-84
2022/01/02 04:35:04;;;;;;;8.70;5.10;;;6.50;79.00;6.30;96873.00;;;;5062278;28;20580;-84
2022/01/02 04:37:31;;;;;;;8.03;5.80;;;6.40;78.90;6.30;96869.00;;;;5071944;28;20739;-84
2022/01/02 04:39:58;;;;;;;5.80;5.20;;;6.40;78.90;6.30;96860.00;;;;5073045;28;20226;-84
2022/01/02 04:42:25;;;;;;;11.17;5.70;;;6.40;78.80;6.30;96864.00;;;;5076185;28;20235;-84
2022/01/02 04:44:52;;;;;;;12.67;5.47;;;6.40;78.80;6.20;96869.00;;;;5060749;28;20211;-84
2022/01/02 04:47:20;;;;;;;11.07;4.97;;;6.30;78.80;6.20;96860.00;;;;5036098;28;20283;-84
2022/01/02 04:49:48;;;;;;;8.73;5.60;;;6.30;78.70;6.20;96859.00;;;;5036222;28;20208;-84
2022/01/02 04:52:15;;;;;;;13.13;5.57;;;6.30;78.80;6.20;96860.00;;;;5036051;28;20208;-84
2022/01/02 04:54:42;;;;;;;6.30;5.00;;;6.30;78.90;6.20;96863.00;;;;5035449;28;20707;-84
2022/01/02 04:57:10;;;;;;;8.60;5.33;;;6.30;78.90;6.20;96850.00;;;;5036005;28;20182;-84
2022/01/02 04:59:38;;;;;;;8.73;5.23;;;6.30;78.90;6.20;96851.00;;;;5035785;28;20225;-84
2022/01/02 05:02:06;;;;;;;14.90;5.47;;;6.20;78.80;6.10;96847.00;;;;5052609;28;20193;-84
2022/01/02 05:04:33;;;;;;;8.90;4.93;;;6.20;78.80;6.10;96832.00;;;;5055208;28;20217;-84
2022/01/02 05:07:02;;;;;;;10.00;5.17;;;6.20;78.70;6.10;96839.00;;;;5055070;28;20205;-84
2022/01/02 05:09:28;;;;;;;6.63;5.07;;;6.20;78.70;6.10;96836.00;;;;5055631;28;20212;-84
2022/01/02 05:11:55;;;;;;;8.40;5.13;;;6.20;78.80;6.10;96839.00;;;;5057948;28;20188;-84
2022/01/02 05:14:22;;;;;;;6.93;5.33;;;6.20;78.90;6.00;96842.00;;;;5059149;28;20227;-84
2022/01/02 05:16:50;;;;;;;7.70;5.63;;;6.10;78.70;6.00;96830.00;;;;5055259;28;20204;-84
2022/01/02 05:19:17;;;;;;;8.27;5.20;;;6.10;78.80;6.00;96818.00;;;;5055070;28;20663;-84
2022/01/02 05:21:44;;;;;;;10.43;5.13;;;6.10;78.70;6.00;96823.00;;;;5055284;28;20571;-84
2022/01/02 05:24:12;;;;;;;7.77;4.93;;;6.10;78.80;6.00;96827.00;;;;5060421;28;20238;-84
2022/01/02 05:26:39;;;;;;;5.73;4.73;;;6.10;78.80;6.00;96823.00;;;;5071626;28;20251;-84
2022/01/02 05:29:07;;;;;;;8.47;4.77;;;6.10;78.80;6.00;96836.00;;;;5055071;28;20701;-84
2022/01/02 05:31:34;;;;;;;11.40;4.73;;;6.10;78.80;5.90;96841.00;;;;5055566;28;20597;-84
2022/01/02 05:34:01;;;;;;;5.67;4.87;;;6.00;78.80;5.90;96836.00;;;;5055114;28;20220;-84
2022/01/02 05:36:28;;;;;;;6.77;5.10;;;6.00;78.80;5.90;96836.00;;;;5054570;28;20678;-85
2022/01/02 05:38:55;;;;;;;7.40;4.80;;;6.00;78.70;5.90;96823.00;;;;5054939;28;20220;-84
2022/01/02 05:41:26;;;;;;;5.80;4.47;;;6.00;78.70;5.90;96818.00;;;;5054892;28;20201;-84
2022/01/02 05:43:53;;;;;;;5.73;4.97;;;6.00;78.80;5.90;96808.00;;;;5054673;28;20224;-84
2022/01/02 05:46:20;;;;;;;6.67;4.63;;;6.00;78.80;5.90;96804.00;;;;5069365;28;20196;-84
2022/01/02 05:48:47;;;;;;;5.97;4.73;;;6.00;78.80;5.80;96809.00;;;;5074878;28;20200;-84
2022/01/02 05:51:14;;;;;;;7.60;5.23;;;6.00;78.80;5.80;96823.00;;;;5059720;28;20571;-85
2022/01/02 05:53:41;;;;;;;12.27;5.90;;;5.90;78.80;5.80;96820.00;;;;5054564;28;20697;-84
2022/01/02 05:56:09;;;;;;;7.27;5.00;;;5.90;78.80;5.80;96813.00;;;;5054355;28;20228;-84
2022/01/02 05:58:37;;;;;;;6.00;4.77;;;5.90;79.70;5.80;96814.00;;;;5065691;28;20215;-84
2022/01/02 06:01:04;;;;;;;7.10;5.07;;;5.90;79.10;5.80;96805.00;;;;5074713;28;20567;-84
2022/01/02 06:03:31;;;;;;;11.53;5.43;;;5.90;79.00;5.80;96807.00;;;;5069511;28;20221;-84
2022/01/02 06:05:58;;;;;;;8.90;5.57;;;5.90;79.10;5.80;96803.00;;;;5054312;28;20203;-84
2022/01/02 06:08:25;;;;;;;7.13;4.80;;;5.90;79.20;5.80;96799.00;;;;5054505;28;20196;-84
2022/01/02 06:10:52;;;;;;;8.03;5.03;;;5.90;79.20;5.80;96800.00;;;;5069322;28;20192;-84
2022/01/02 06:13:20;;;;;;;10.80;4.63;;;6.00;79.20;5.80;96798.00;;;;5066728;28;20216;-84
2022/01/02 06:15:49;;;;;;;6.30;4.80;;;5.90;79.10;5.80;96787.00;;;;5054002;28;20254;-84
2022/01/02 06:18:16;;;;;;;5.47;4.97;;;5.90;79.30;5.80;96786.00;;;;5055419;28;20275;-84
2022/01/02 06:20:43;;;;;;;10.60;5.13;;;5.90;79.20;5.80;96789.00;;;;5041303;28;20228;-84
2022/01/02 06:23:10;;;;;;;9.50;5.00;;;5.90;79.10;5.80;96801.00;;;;5038463;28;20202;-84
2022/01/02 06:25:37;;;;;;;6.93;5.23;;;5.90;79.30;5.80;96787.00;;;;5061383;28;20192;-84
2022/01/02 06:28:04;;;;;;;5.57;4.73;;;5.90;79.30;5.80;96787.00;;;;5074942;28;20196;-84
2022/01/02 06:30:32;;;;;;;8.83;4.90;;;5.90;79.30;5.80;96777.00;;;;5074770;28;20199;-84
2022/01/02 06:33:00;;;;;;;9.57;5.03;;;5.80;79.20;5.80;96781.00;;;;5074296;28;20609;-84
2022/01/02 06:35:31;;;;;;;7.70;5.03;;;5.80;79.30;5.80;96789.00;;;;5054311;28;20196;-84
2022/01/02 06:38:00;;;;;;;5.97;4.77;;;5.90;79.40;5.80;96771.00;;;;5068420;28;20192;-84
2022/01/02 06:40:27;;;;;;;6.47;4.97;;;5.80;79.40;5.80;96772.00;;;;5074509;28;20224;-84
2022/01/02 06:42:56;;;;;;;9.20;4.20;;;5.90;79.50;5.80;96765.00;;;;5070329;28;20209;-84
2022/01/02 06:45:23;;;;;;;10.53;5.37;;;5.90;79.40;5.80;96770.00;;;;5067373;28;20207;-84
2022/01/02 06:47:50;;;;;;;12.40;5.17;;;5.90;79.40;5.80;96768.00;;;;5062795;28;20193;-84
2022/01/02 06:50:19;;;;;;;8.47;4.90;;;5.90;79.50;5.80;96776.00;;;;5064738;28;20555;-84
2022/01/02 06:52:46;;;;;;;14.13;4.73;;;5.80;79.40;5.80;96777.00;;;;5074145;28;20198;-84
2022/01/02 06:55:13;;;;;;;12.20;5.53;;;5.90;79.40;5.80;96783.00;;;;5073086;28;20222;-84
2022/01/02 06:57:40;;;;;;;6.63;4.77;;;5.90;79.40;5.80;96776.00;;;;5074580;28;20207;-84
2022/01/02 07:00:09;;;;;;;5.63;5.07;;;5.90;79.40;5.80;96765.00;;;;5073785;28;20220;-84
2022/01/02 07:02:36;;;;;;;5.10;4.43;;;5.90;79.40;5.80;96773.00;;;;5056275;28;20197;-84
2022/01/02 07:05:04;;;;;;;7.07;5.00;;;5.90;79.40;5.80;96770.00;;;;5055151;28;20229;-84
2022/01/02 07:07:32;;;;;;;5.73;5.10;;;5.90;79.40;5.80;96775.00;;;;5055099;28;20200;-84
2022/01/02 07:09:59;;;;;;;5.20;4.37;;;5.90;79.40;5.90;96777.00;;;;5060097;28;20192;-84
2022/01/02 07:12:26;;;;;;;6.67;4.80;;;5.90;79.40;5.90;96783.00;;;;5074414;28;20199;-84
2022/01/02 07:14:53;;;;;;;6.30;4.83;;;5.90;79.40;5.90;96782.00;;;;5054347;28;20231;-84
2022/01/02 07:17:20;;;;;;;5.93;4.57;;;5.90;79.50;5.90;96787.00;;;;5054414;28;20204;-84
2022/01/02 07:19:47;;;;;;;7.40;4.80;;;5.90;79.50;5.90;96782.00;;;;5054201;28;20227;-84
2022/01/02 07:22:14;;;;;;;6.73;4.90;;;5.90;79.60;6.00;96789.00;;;;5054303;28;20196;-84
2022/01/02 07:24:47;;;;;;;6.03;5.10;;;6.00;79.70;6.00;96784.00;;;;5052009;28;20240;-84
2022/01/02 07:27:14;;;;;;;5.90;5.13;;;6.00;79.90;6.00;96776.00;;;;5055217;28;20196;-84
2022/01/02 07:29:41;;;;;;;12.83;5.90;;;6.00;80.00;6.10;96773.00;;;;5053803;28;20192;-84
2022/01/02 07:32:08;;;;;;;11.93;5.17;;;6.00;80.10;6.10;96772.00;;;;5062910;28;20200;-84
2022/01/02 07:34:35;;;;;;;6.47;5.30;;;6.10;80.20;6.10;96752.00;;;;5055885;28;20223;-85
2022/01/02 07:37:03;;;;;;;8.30;5.73;;;6.10;80.20;6.10;96750.00;;;;5053803;28;20211;-84
2022/01/02 07:39:30;;;;;;;8.80;5.30;;;6.10;80.20;6.20;96749.00;;;;5054092;28;20259;-83
2022/01/02 07:41:58;;;;;;;5.27;4.83;;;6.10;80.20;6.20;96755.00;;;;5066332;28;20202;-80
2022/01/02 07:44:25;;;;;;;5.20;4.70;;;6.20;80.40;6.30;96758.00;;;;5064776;28;20217;-83
2022/01/02 07:46:52;;;;;;;7.27;5.20;;;6.20;80.50;6.40;96760.00;;;;5057470;28;20227;-81
2022/01/02 07:49:19;;;;;;;13.97;5.67;;;6.30;80.70;6.40;96761.00;;;;5062283;28;20830;-81
2022/01/02 07:51:46;;;;;;;8.30;5.43;;;6.30;81.40;6.50;96758.00;;;;5064472;28;20211;-82
2022/01/02 07:54:13;;;;;;;9.43;5.80;;;6.30;80.80;6.60;96758.00;;;;5077069;28;20294;-82
2022/01/02 07:56:41;;;;;;;5.20;4.80;;;6.40;80.90;6.60;96752.00;;;;5080975;28;20184;-82
2022/01/02 07:59:09;;;;;;;8.17;5.13;;;6.40;80.90;6.70;96758.00;;;;5075671;28;20229;-83
2022/01/02 08:01:36;;;;;;;9.13;5.23;;;6.50;81.00;6.70;96756.00;;;;5076073;28;20272;-82
2022/01/02 08:04:03;;;;;;;11.23;5.30;;;6.50;81.20;6.80;96748.00;;;;5059571;28;20221;-81
2022/01/02 08:06:30;;;;;;;4.90;4.47;;;6.60;81.30;6.90;96759.00;;;;5057638;28;20196;-82
2022/01/02 08:08:57;;;;;;;7.37;5.17;;;6.60;81.40;6.90;96757.00;;;;5072185;28;20196;-82
2022/01/02 08:11:24;;;;;;;7.07;4.87;;;6.70;81.50;7.00;96770.00;;;;5071112;28;20696;-83
2022/01/02 08:13:51;;;;;;;6.43;5.07;;;6.70;82.20;7.10;96777.00;;;;5067894;28;20266;-82
2022/01/02 08:16:19;;;;;;;6.60;4.93;;;6.80;81.50;7.10;96764.00;;;;5075281;28;20710;-82
2022/01/02 08:18:47;;;;;;;6.53;5.30;;;6.90;81.60;7.20;96746.00;;;;5057272;28;20203;-82
2022/01/02 08:21:13;;;;;;;8.30;4.97;;;6.90;81.60;7.30;96747.00;;;;5047494;28;20211;-81
2022/01/02 08:23:40;;;;;;;7.07;5.13;;;7.00;81.60;7.30;96746.00;;;;5072921;28;20217;-82
2022/01/02 08:26:08;;;;;;;9.03;5.47;;;7.00;81.60;7.40;96751.00;;;;5074682;28;20192;-81
2022/01/02 08:28:35;;;;;;;7.43;5.07;;;7.10;81.70;7.50;96754.00;;;;5059910;28;20189;-81
2022/01/02 08:31:02;;;;;;;8.67;5.70;;;7.20;81.70;7.50;96757.00;;;;5055542;28;20200;-82
2022/01/02 08:33:31;;;;;;;7.03;5.57;;;7.20;81.60;7.60;96750.00;;;;5048516;28;20595;-82
2022/01/02 08:35:58;;;;;;;15.83;6.33;;;7.30;81.70;7.70;96746.00;;;;5056604;28;20658;-82
2022/01/02 08:38:25;;;;;;;7.90;6.47;;;7.40;81.80;7.70;96753.00;;;;5073215;28;20193;-82
2022/01/02 08:40:52;;;;;;;8.40;6.20;;;7.40;81.90;7.80;96752.00;;;;5049014;28;20219;-81
2022/01/02 08:43:18;;;;;;;8.33;6.07;;;7.50;81.90;7.90;96745.00;;;;5055778;28;20588;-81
2022/01/02 08:45:46;;;;;;;9.63;6.47;;;7.50;82.00;7.90;96742.00;;;;5062399;28;20542;-82
2022/01/02 08:48:13;;;;;;;9.57;6.43;;;7.60;82.10;8.00;96746.00;;;;5063294;28;20200;-82
2022/01/02 08:50:41;;;;;;;7.13;5.60;;;7.70;82.20;8.10;96740.00;;;;5054338;28;20571;-81
2022/01/02 08:53:08;;;;;;;7.77;6.73;;;7.70;82.20;8.20;96735.00;;;;5046139;28;20191;-80
2022/01/02 08:55:36;;;;;;;9.50;5.93;;;7.80;82.20;8.30;96735.00;;;;5032411;28;20205;-80
2022/01/02 08:58:03;;;;;;;12.10;6.27;;;7.90;82.20;8.40;96739.00;;;;5058974;28;20193;-80
2022/01/02 09:00:32;;;;;;;8.63;6.20;;;8.00;82.20;8.40;96728.00;;;;5073488;28;20254;-81
2022/01/02 09:02:59;;;;;;;6.73;5.90;;;8.00;82.20;8.50;96730.00;;;;5073682;28;20266;-82
2022/01/02 09:05:27;;;;;;;13.93;5.50;;;8.10;82.20;8.50;96725.00;;;;5053206;28;20202;-80
2022/01/02 09:07:56;;;;;;;7.80;4.83;;;8.20;82.20;8.60;96727.00;;;;5054849;28;20193;-82
2022/01/02 09:10:23;;;;;;;7.40;4.97;;;8.10;82.10;8.60;96736.00;;;;5072460;28;20200;-80
2022/01/02 09:12:51;;;;;;;9.70;5.20;;;8.30;82.10;8.70;96733.00;;;;5069032;28;20655;-81
2022/01/02 09:15:18;;;;;;;6.23;4.77;;;8.30;82.00;8.70;96747.00;;;;5054886;28;20219;-82
2022/01/02 09:17:45;;;;;;;6.20;5.13;;;8.40;82.00;8.80;96733.00;;;;5058362;28;20189;-81
2022/01/02 09:20:14;;;;;;;10.63;4.97;;;8.50;81.90;8.80;96736.00;;;;5060239;28;20705;-81
2022/01/02 09:22:42;;;;;;;8.63;4.40;;;8.50;81.70;8.80;96730.00;;;;5061416;28;20288;-81
2022/01/02 09:25:11;;;;;;;10.47;4.80;;;8.50;81.60;8.80;96739.00;;;;5059656;28;20248;-81
2022/01/02 09:27:39;;;;;;;4.57;4.17;;;8.60;81.50;8.80;96740.00;;;;5061829;28;20193;-82
2022/01/02 09:30:09;;;;;;;14.87;4.47;;;8.60;81.50;8.80;96744.00;;;;5082292;28;20249;-80
2022/01/02 09:32:36;;;;;;;9.70;4.67;;;8.60;81.40;8.80;96745.00;;;;5081167;28;20204;-80
2022/01/02 09:35:03;;;;;;;5.37;4.87;;;8.60;81.40;8.90;96739.00;;;;5065122;28;20227;-82
2022/01/02 09:37:31;;;;;;;5.13;4.63;;;8.60;81.40;8.90;96749.00;;;;5060850;28;20203;-83
2022/01/02 09:39:58;;;;;;;5.90;4.40;;;8.60;81.40;8.90;96741.00;;;;5060638;28;20208;-81
2022/01/02 09:42:27;;;;;;;6.57;4.93;;;8.70;81.60;9.00;96749.00;;;;5071081;28;20192;-82
2022/01/02 09:44:54;;;;;;;4.37;3.97;;;8.70;81.80;9.10;96745.00;;;;5037992;28;20218;-79
2022/01/02 09:47:23;;;;;;;6.40;4.40;;;8.70;82.10;9.20;96752.00;;;;5039115;28;20197;-81
2022/01/02 09:49:51;;;;;;;3.60;3.27;;;8.80;82.50;9.30;96742.00;;;;5059534;28;20572;-82
2022/01/02 09:52:18;;;;;;;4.23;3.50;;;8.90;82.80;9.40;96752.00;;;;5057234;28;20203;-80
2022/01/02 09:54:46;;;;;;;5.10;3.30;;;9.00;83.20;9.50;96751.00;;;;5056343;28;20228;-81
2022/01/02 09:57:13;;;;;;;4.20;3.20;;;9.20;83.50;9.70;96743.00;;;;5057522;28;20857;-81
2022/01/02 09:59:41;;;;;;;2.80;2.60;;;9.30;83.90;9.90;96731.00;;;;5058576;28;20195;-80
2022/01/02 10:02:08;;;;;;;3.10;2.80;;;9.60;84.40;10.00;96726.00;;;;5063121;28;20192;-80
2022/01/02 10:04:38;;;;;;;2.90;2.70;;;9.80;84.80;10.20;96729.00;;;;5063506;28;20275;-81
2022/01/02 10:07:08;;;;;;;2.60;2.40;;;10.10;85.00;10.40;96728.00;;;;5056914;28;20197;-80
2022/01/02 10:09:37;;;;;;;2.90;2.70;;;10.40;85.30;10.60;96731.00;;;;5063091;28;20188;-80
2022/01/02 10:12:28;;;;;;;4.00;2.80;;;10.70;85.40;10.90;96730.00;;;;5058376;28;20199;-80
2022/01/02 10:15:25;;;;;;;2.43;2.23;;;11.00;84.60;11.20;96732.00;;;;5052059;28;20224;-82
2022/01/02 10:17:54;;;;;;;2.20;2.10;;;11.40;84.20;11.50;96730.00;;;;5001665;28;20207;-81
2022/01/02 10:20:23;;;;;;;2.00;1.90;;;11.70;84.60;11.80;96730.00;;;;5035739;28;20236;-79
2022/01/02 10:23:12;;;;;;;1.77;1.63;;;12.00;83.80;12.10;96722.00;;;;5047983;28;20201;-80
2022/01/02 10:25:46;;;;;;;1.70;1.60;;;12.30;81.90;12.50;96709.00;;;;5066813;28;20660;-81
2022/01/02 10:28:33;;;;;;;2.17;1.90;;;12.60;81.90;12.80;96717.00;;;;5063941;28;20181;-80
2022/01/02 10:31:06;;;;;;;3.43;2.10;;;12.90;80.20;13.10;96710.00;;;;5058734;28;20577;-82
2022/01/02 10:33:51;;;;;;;2.53;2.00;;;13.20;80.40;13.30;96706.00;;;;5064271;28;20224;-80
2022/01/02 10:36:27;;;;;;;2.10;1.93;;;13.40;77.00;13.50;96699.00;;;;5050161;28;20198;-82
2022/01/02 10:39:10;;;;;;;2.23;2.07;;;13.60;76.40;13.60;96706.00;;;;5046462;28;20192;-82
2022/01/02 10:41:40;;;;;;;3.73;2.23;;;13.70;75.10;13.60;96704.00;;;;5042443;28;20219;-81
2022/01/02 10:44:26;;;;;;;2.07;1.87;;;13.70;75.00;13.60;96709.00;;;;5044646;28;20221;-82
2022/01/02 10:47:16;;;;;;;2.13;1.70;;;13.70;74.00;13.70;96710.00;;;;5065087;28;20197;-81
2022/01/02 10:49:53;;;;;;;2.20;2.00;;;13.70;73.00;13.60;96712.00;;;;5057335;28;20200;-80
2022/01/02 10:52:23;;;;;;;1.73;1.33;;;13.70;73.70;13.60;96709.00;;;;5048651;28;20209;-80
2022/01/02 10:54:51;;;;;;;2.37;1.90;;;13.60;73.90;13.60;96700.00;;;;5037304;28;20259;-81
2022/01/02 10:57:19;;;;;;;2.43;1.60;;;13.50;73.90;13.60;96696.00;;;;5063589;28;20661;-81
2022/01/02 10:59:47;;;;;;;1.93;1.70;;;13.50;73.60;13.60;96688.00;;;;5078423;28;20665;-81
2022/01/02 11:02:17;;;;;;;5.40;1.53;;;13.50;73.30;13.60;96698.00;;;;5057620;28;20227;-80
2022/01/02 11:04:49;;;;;;;1.70;1.60;;;13.40;73.20;13.50;96686.00;;;;5063045;28;20229;-81
2022/01/02 11:07:22;;;;;;;3.00;1.83;;;13.40;73.00;13.50;96689.00;;;;5055291;28;20185;-82
2022/01/02 11:09:53;;;;;;;2.17;1.97;;;13.30;73.30;13.50;96685.00;;;;5071055;28;20196;-80
2022/01/02 11:12:21;;;;;;;2.00;1.87;;;13.30;73.70;13.50;96679.00;;;;5061353;28;20211;-81
2022/01/02 11:14:49;;;;;;;4.13;1.60;;;13.20;73.50;13.50;96675.00;;;;5055295;28;20248;-80
2022/01/02 11:17:18;;;;;;;1.83;1.73;;;13.20;73.40;13.40;96683.00;;;;5055229;28;20608;-80
2022/01/02 11:19:45;;;;;;;2.63;1.70;;;13.20;73.30;13.40;96684.00;;;;5069075;28;20193;-82
2022/01/02 11:22:21;;;;;;;6.57;1.90;;;13.10;73.40;13.40;96680.00;;;;5053167;28;20224;-81